sensor_id;sensor_type;location;lat;lon;timestamp;P1;durP1;ratioP1;P2;durP2;ratioP2
6135;SDS011;24008;42.664;23.372;2023-06-04T00:02:19;7.20;;;5.20;;
6135;SDS011;24008;42.664;23.372;2023-06-04T00:04:46;6.80;;;5.57;;
6135;SDS011;24008;42.664;23.372;2023-06-04T00:07:13;5.87;;;5.10;;
6135;SDS011;24008;42.664;23.372;2023-06-04T00:09:41;5.87;;;5.17;;
6135;SDS011;24008;42.664;23.372;2023-06-04T00:12:09;7.53;;;5.47;;
6135;SDS011;24008;42.664;23.372;2023-06-04T00:14:36;6.87;;;5.40;;
6135;SDS011;24008;42.664;23.372;2023-06-04T00:17:02;8.90;;;5.47;;
6135;SDS011;24008;42.664;23.372;2023-06-04T00:19:29;7.20;;;5.77;;
6135;SDS011;24008;42.664;23.372;2023-06-04T00:21:56;7.03;;;5.47;;
6135;SDS011;24008;42.664;23.372;2023-06-04T00:24:23;5.30;;;4.80;;
6135;SDS011;24008;42.664;23.372;2023-06-04T00:26:51;6.03;;;5.43;;
6135;SDS011;24008;42.664;23.372;2023-06-04T00:29:18;8.83;;;5.27;;
6135;SDS011;24008;42.664;23.372;2023-06-04T00:31:44;5.53;;;4.80;;
6135;SDS011;24008;42.664;23.372;2023-06-04T00:34:11;5.63;;;4.93;;
6135;SDS011;24008;42.664;23.372;2023-06-04T00:36:38;6.70;;;5.20;;
6135;SDS011;24008;42.664;23.372;2023-06-04T00:39:06;7.07;;;5.23;;
6135;SDS011;24008;42.664;23.372;2023-06-04T00:41:32;7.87;;;5.40;;
6135;SDS011;24008;42.664;23.372;2023-06-04T00:44:01;9.03;;;6.27;;
6135;SDS011;24008;42.664;23.372;2023-06-04T00:46:31;7.57;;;6.70;;
6135;SDS011;24008;42.664;23.372;2023-06-04T00:49:01;8.07;;;6.97;;
6135;SDS011;24008;42.664;23.372;2023-06-04T00:51:28;9.47;;;7.83;;
6135;SDS011;24008;42.664;23.372;2023-06-04T00:53:57;13.33;;;10.80;;
6135;SDS011;24008;42.664;23.372;2023-06-04T00:56:26;12.67;;;10.50;;
6135;SDS011;24008;42.664;23.372;2023-06-04T00:58:53;11.80;;;9.57;;
6135;SDS011;24008;42.664;23.372;2023-06-04T01:01:24;13.23;;;9.93;;
6135;SDS011;24008;42.664;23.372;2023-06-04T01:04:06;10.60;;;9.50;;
6135;SDS011;24008;42.664;23.372;2023-06-04T01:06:39;13.27;;;9.47;;
6135;SDS011;24008;42.664;23.372;2023-06-04T01:09:09;14.00;;;10.03;;
6135;SDS011;24008;42.664;23.372;2023-06-04T01:11:38;11.87;;;8.77;;
6135;SDS011;24008;42.664;23.372;2023-06-04T01:14:06;12.70;;;8.73;;
6135;SDS011;24008;42.664;23.372;2023-06-04T01:16:37;12.53;;;9.23;;
6135;SDS011;24008;42.664;23.372;2023-06-04T01:19:11;10.97;;;8.20;;
6135;SDS011;24008;42.664;23.372;2023-06-04T01:21:59;9.17;;;7.57;;
6135;SDS011;24008;42.664;23.372;2023-06-04T01:24:30;8.17;;;6.50;;
6135;SDS011;24008;42.664;23.372;2023-06-04T01:27:01;8.03;;;6.03;;
6135;SDS011;24008;42.664;23.372;2023-06-04T01:29:29;7.97;;;6.47;;
6135;SDS011;24008;42.664;23.372;2023-06-04T01:31:58;6.17;;;5.57;;
6135;SDS011;24008;42.664;23.372;2023-06-04T01:34:25;8.13;;;4.70;;
6135;SDS011;24008;42.664;23.372;2023-06-04T01:36:52;7.17;;;5.33;;
6135;SDS011;24008;42.664;23.372;2023-06-04T01:39:19;4.93;;;4.30;;
6135;SDS011;24008;42.664;23.372;2023-06-04T01:41:45;5.83;;;4.53;;
6135;SDS011;24008;42.664;23.372;2023-06-04T01:44:12;5.17;;;4.37;;
6135;SDS011;24008;42.664;23.372;2023-06-04T01:46:39;4.77;;;4.27;;
6135;SDS011;24008;42.664;23.372;2023-06-04T01:49:07;5.67;;;3.80;;
6135;SDS011;24008;42.664;23.372;2023-06-04T01:51:34;7.03;;;3.90;;
6135;SDS011;24008;42.664;23.372;2023-06-04T01:54:01;6.53;;;4.50;;
6135;SDS011;24008;42.664;23.372;2023-06-04T01:56:28;5.27;;;4.73;;
6135;SDS011;24008;42.664;23.372;2023-06-04T01:58:55;4.80;;;4.40;;
6135;SDS011;24008;42.664;23.372;2023-06-04T02:01:22;6.67;;;4.00;;
6135;SDS011;24008;42.664;23.372;2023-06-04T02:03:49;4.53;;;4.03;;
6135;SDS011;24008;42.664;23.372;2023-06-04T02:06:17;7.23;;;4.10;;
6135;SDS011;24008;42.664;23.372;2023-06-04T02:08:44;4.73;;;4.03;;
6135;SDS011;24008;42.664;23.372;2023-06-04T02:11:10;4.43;;;3.80;;
6135;SDS011;24008;42.664;23.372;2023-06-04T02:13:37;6.27;;;4.87;;
6135;SDS011;24008;42.664;23.372;2023-06-04T02:16:04;6.20;;;4.80;;
6135;SDS011;24008;42.664;23.372;2023-06-04T02:18:31;5.77;;;4.33;;
6135;SDS011;24008;42.664;23.372;2023-06-04T02:20:58;4.97;;;4.40;;
6135;SDS011;24008;42.664;23.372;2023-06-04T02:23:26;5.63;;;4.63;;
6135;SDS011;24008;42.664;23.372;2023-06-04T02:25:53;5.17;;;4.63;;
6135;SDS011;24008;42.664;23.372;2023-06-04T02:28:20;6.90;;;4.47;;
6135;SDS011;24008;42.664;23.372;2023-06-04T02:30:46;5.23;;;4.73;;
6135;SDS011;24008;42.664;23.372;2023-06-04T02:33:13;7.23;;;4.90;;
6135;SDS011;24008;42.664;23.372;2023-06-04T02:35:41;6.13;;;4.90;;
6135;SDS011;24008;42.664;23.372;2023-06-04T02:38:08;7.53;;;5.80;;
6135;SDS011;24008;42.664;23.372;2023-06-04T02:40:36;7.33;;;5.20;;
6135;SDS011;24008;42.664;23.372;2023-06-04T02:43:03;6.00;;;5.27;;
6135;SDS011;24008;42.664;23.372;2023-06-04T02:45:30;5.90;;;5.30;;
6135;SDS011;24008;42.664;23.372;2023-06-04T02:47:57;9.33;;;5.77;;
6135;SDS011;24008;42.664;23.372;2023-06-04T02:50:23;7.00;;;5.30;;
6135;SDS011;24008;42.664;23.372;2023-06-04T02:52:50;6.03;;;5.00;;
6135;SDS011;24008;42.664;23.372;2023-06-04T02:55:17;8.03;;;5.40;;
6135;SDS011;24008;42.664;23.372;2023-06-04T02:57:45;7.13;;;5.63;;
6135;SDS011;24008;42.664;23.372;2023-06-04T03:00:12;6.83;;;5.63;;
6135;SDS011;24008;42.664;23.372;2023-06-04T03:02:41;7.77;;;6.00;;
6135;SDS011;24008;42.664;23.372;2023-06-04T03:05:09;11.47;;;5.10;;
6135;SDS011;24008;42.664;23.372;2023-06-04T03:07:38;7.20;;;5.77;;
6135;SDS011;24008;42.664;23.372;2023-06-04T03:10:06;6.13;;;5.53;;
6135;SDS011;24008;42.664;23.372;2023-06-04T03:12:34;6.03;;;5.43;;
6135;SDS011;24008;42.664;23.372;2023-06-04T03:15:03;8.23;;;6.00;;
6135;SDS011;24008;42.664;23.372;2023-06-04T03:17:30;6.00;;;5.10;;
6135;SDS011;24008;42.664;23.372;2023-06-04T03:19:57;6.57;;;5.70;;
6135;SDS011;24008;42.664;23.372;2023-06-04T03:22:24;6.33;;;5.30;;
6135;SDS011;24008;42.664;23.372;2023-06-04T03:24:51;9.03;;;5.63;;
6135;SDS011;24008;42.664;23.372;2023-06-04T03:27:18;7.77;;;5.63;;
6135;SDS011;24008;42.664;23.372;2023-06-04T03:29:45;8.27;;;5.60;;
6135;SDS011;24008;42.664;23.372;2023-06-04T03:32:14;8.00;;;5.57;;
6135;SDS011;24008;42.664;23.372;2023-06-04T03:34:42;7.17;;;5.40;;
6135;SDS011;24008;42.664;23.372;2023-06-04T03:37:09;6.50;;;5.50;;
6135;SDS011;24008;42.664;23.372;2023-06-04T03:39:35;7.23;;;5.13;;
6135;SDS011;24008;42.664;23.372;2023-06-04T03:42:02;7.33;;;5.90;;
6135;SDS011;24008;42.664;23.372;2023-06-04T03:44:29;6.07;;;5.10;;
6135;SDS011;24008;42.664;23.372;2023-06-04T03:46:56;6.50;;;5.20;;
6135;SDS011;24008;42.664;23.372;2023-06-04T03:49:24;7.63;;;5.93;;
6135;SDS011;24008;42.664;23.372;2023-06-04T03:51:51;7.50;;;5.70;;
6135;SDS011;24008;42.664;23.372;2023-06-04T03:54:18;6.47;;;4.87;;
6135;SDS011;24008;42.664;23.372;2023-06-04T03:56:45;5.67;;;5.07;;
6135;SDS011;24008;42.664;23.372;2023-06-04T03:59:12;10.83;;;5.53;;
6135;SDS011;24008;42.664;23.372;2023-06-04T04:01:39;6.67;;;5.10;;
6135;SDS011;24008;42.664;23.372;2023-06-04T04:04:06;8.80;;;4.90;;
6135;SDS011;24008;42.664;23.372;2023-06-04T04:06:34;8.33;;;5.10;;
6135;SDS011;24008;42.664;23.372;2023-06-04T04:09:02;17.10;;;6.00;;
6135;SDS011;24008;42.664;23.372;2023-06-04T04:11:30;6.03;;;5.43;;
6135;SDS011;24008;42.664;23.372;2023-06-04T04:13:57;8.87;;;5.57;;
6135;SDS011;24008;42.664;23.372;2023-06-04T04:16:25;6.70;;;5.87;;
6135;SDS011;24008;42.664;23.372;2023-06-04T04:18:52;6.30;;;5.70;;
6135;SDS011;24008;42.664;23.372;2023-06-04T04:21:41;8.67;;;6.07;;
6135;SDS011;24008;42.664;23.372;2023-06-04T04:24:07;6.93;;;5.77;;
6135;SDS011;24008;42.664;23.372;2023-06-04T04:26:34;8.77;;;6.30;;
6135;SDS011;24008;42.664;23.372;2023-06-04T04:29:01;7.57;;;6.00;;
6135;SDS011;24008;42.664;23.372;2023-06-04T04:31:29;7.07;;;6.37;;
6135;SDS011;24008;42.664;23.372;2023-06-04T04:33:57;8.60;;;6.97;;
6135;SDS011;24008;42.664;23.372;2023-06-04T04:36:25;7.90;;;7.10;;
6135;SDS011;24008;42.664;23.372;2023-06-04T04:38:53;10.37;;;8.40;;
6135;SDS011;24008;42.664;23.372;2023-06-04T04:41:20;9.70;;;7.80;;
6135;SDS011;24008;42.664;23.372;2023-06-04T04:43:47;11.57;;;8.23;;
6135;SDS011;24008;42.664;23.372;2023-06-04T04:46:14;9.33;;;8.33;;
6135;SDS011;24008;42.664;23.372;2023-06-04T04:48:41;10.33;;;8.10;;
6135;SDS011;24008;42.664;23.372;2023-06-04T04:51:08;12.17;;;7.93;;
6135;SDS011;24008;42.664;23.372;2023-06-04T04:53:35;10.87;;;7.70;;
6135;SDS011;24008;42.664;23.372;2023-06-04T04:56:03;8.73;;;7.30;;
6135;SDS011;24008;42.664;23.372;2023-06-04T04:58:30;7.43;;;6.73;;
6135;SDS011;24008;42.664;23.372;2023-06-04T05:00:56;9.43;;;7.20;;
6135;SDS011;24008;42.664;23.372;2023-06-04T05:03:23;8.27;;;7.03;;
6135;SDS011;24008;42.664;23.372;2023-06-04T05:05:50;7.70;;;6.67;;
6135;SDS011;24008;42.664;23.372;2023-06-04T05:08:16;8.83;;;6.70;;
6135;SDS011;24008;42.664;23.372;2023-06-04T05:10:43;9.53;;;7.10;;
6135;SDS011;24008;42.664;23.372;2023-06-04T05:13:12;10.40;;;7.43;;
6135;SDS011;24008;42.664;23.372;2023-06-04T05:15:40;9.03;;;7.33;;
6135;SDS011;24008;42.664;23.372;2023-06-04T05:18:07;10.13;;;8.17;;
6135;SDS011;24008;42.664;23.372;2023-06-04T05:20:34;8.50;;;7.63;;
6135;SDS011;24008;42.664;23.372;2023-06-04T05:23:02;11.37;;;7.77;;
6135;SDS011;24008;42.664;23.372;2023-06-04T05:25:29;10.47;;;8.20;;
6135;SDS011;24008;42.664;23.372;2023-06-04T05:27:56;9.57;;;7.70;;
6135;SDS011;24008;42.664;23.372;2023-06-04T05:30:24;11.83;;;8.33;;
6135;SDS011;24008;42.664;23.372;2023-06-04T05:32:51;11.53;;;8.87;;
6135;SDS011;24008;42.664;23.372;2023-06-04T05:35:18;9.70;;;8.40;;
6135;SDS011;24008;42.664;23.372;2023-06-04T05:37:45;12.43;;;9.77;;
6135;SDS011;24008;42.664;23.372;2023-06-04T05:40:18;12.30;;;8.47;;
6135;SDS011;24008;42.664;23.372;2023-06-04T05:42:46;10.27;;;8.23;;
6135;SDS011;24008;42.664;23.372;2023-06-04T05:45:13;13.77;;;9.00;;
6135;SDS011;24008;42.664;23.372;2023-06-04T05:47:41;12.87;;;8.90;;
6135;SDS011;24008;42.664;23.372;2023-06-04T05:50:08;10.30;;;8.27;;
6135;SDS011;24008;42.664;23.372;2023-06-04T05:52:36;11.77;;;8.90;;
6135;SDS011;24008;42.664;23.372;2023-06-04T05:55:03;9.70;;;7.93;;
6135;SDS011;24008;42.664;23.372;2023-06-04T05:57:51;9.87;;;7.67;;
6135;SDS011;24008;42.664;23.372;2023-06-04T06:00:17;10.03;;;8.00;;
6135;SDS011;24008;42.664;23.372;2023-06-04T06:02:46;9.00;;;7.87;;
6135;SDS011;24008;42.664;23.372;2023-06-04T06:05:14;8.63;;;7.67;;
6135;SDS011;24008;42.664;23.372;2023-06-04T06:07:41;13.00;;;7.83;;
6135;SDS011;24008;42.664;23.372;2023-06-04T06:10:08;12.97;;;8.00;;
6135;SDS011;24008;42.664;23.372;2023-06-04T06:12:35;10.20;;;8.27;;
6135;SDS011;24008;42.664;23.372;2023-06-04T06:15:02;12.27;;;9.00;;
6135;SDS011;24008;42.664;23.372;2023-06-04T06:17:29;12.00;;;9.17;;
6135;SDS011;24008;42.664;23.372;2023-06-04T06:19:57;10.03;;;7.80;;
6135;SDS011;24008;42.664;23.372;2023-06-04T06:22:24;9.70;;;7.87;;
6135;SDS011;24008;42.664;23.372;2023-06-04T06:24:52;9.73;;;7.50;;
6135;SDS011;24008;42.664;23.372;2023-06-04T06:27:19;12.03;;;8.43;;
6135;SDS011;24008;42.664;23.372;2023-06-04T06:29:46;11.33;;;7.93;;
6135;SDS011;24008;42.664;23.372;2023-06-04T06:32:13;8.73;;;7.43;;
6135;SDS011;24008;42.664;23.372;2023-06-04T06:34:39;9.97;;;7.60;;
6135;SDS011;24008;42.664;23.372;2023-06-04T06:37:07;8.63;;;7.37;;
6135;SDS011;24008;42.664;23.372;2023-06-04T06:39:34;9.17;;;7.33;;
6135;SDS011;24008;42.664;23.372;2023-06-04T06:42:01;10.63;;;7.70;;
6135;SDS011;24008;42.664;23.372;2023-06-04T06:44:28;11.03;;;7.20;;
6135;SDS011;24008;42.664;23.372;2023-06-04T06:46:54;9.73;;;7.30;;
6135;SDS011;24008;42.664;23.372;2023-06-04T06:49:21;8.00;;;6.60;;
6135;SDS011;24008;42.664;23.372;2023-06-04T06:51:48;9.87;;;6.80;;
6135;SDS011;24008;42.664;23.372;2023-06-04T06:54:16;8.23;;;6.07;;
6135;SDS011;24008;42.664;23.372;2023-06-04T06:56:46;9.57;;;6.63;;
6135;SDS011;24008;42.664;23.372;2023-06-04T06:59:13;8.00;;;6.87;;
6135;SDS011;24008;42.664;23.372;2023-06-04T07:01:40;8.23;;;6.57;;
6135;SDS011;24008;42.664;23.372;2023-06-04T07:04:07;7.97;;;7.17;;
6135;SDS011;24008;42.664;23.372;2023-06-04T07:06:33;9.50;;;7.77;;
6135;SDS011;24008;42.664;23.372;2023-06-04T07:09:01;8.13;;;7.27;;
6135;SDS011;24008;42.664;23.372;2023-06-04T07:11:30;12.07;;;9.63;;
6135;SDS011;24008;42.664;23.372;2023-06-04T07:13:57;9.80;;;7.37;;
6135;SDS011;24008;42.664;23.372;2023-06-04T07:16:24;8.50;;;7.47;;
6135;SDS011;24008;42.664;23.372;2023-06-04T07:18:50;8.33;;;7.50;;
6135;SDS011;24008;42.664;23.372;2023-06-04T07:21:17;8.23;;;7.27;;
6135;SDS011;24008;42.664;23.372;2023-06-04T07:23:44;7.97;;;7.13;;
6135;SDS011;24008;42.664;23.372;2023-06-04T07:26:14;12.17;;;8.30;;
6135;SDS011;24008;42.664;23.372;2023-06-04T07:28:43;10.33;;;8.30;;
6135;SDS011;24008;42.664;23.372;2023-06-04T07:31:09;12.60;;;7.80;;
6135;SDS011;24008;42.664;23.372;2023-06-04T07:33:36;8.10;;;7.23;;
6135;SDS011;24008;42.664;23.372;2023-06-04T07:36:08;11.70;;;7.90;;
6135;SDS011;24008;42.664;23.372;2023-06-04T07:38:35;9.23;;;7.33;;
6135;SDS011;24008;42.664;23.372;2023-06-04T07:41:02;8.80;;;7.83;;
6135;SDS011;24008;42.664;23.372;2023-06-04T07:43:28;11.60;;;7.30;;
6135;SDS011;24008;42.664;23.372;2023-06-04T07:45:57;8.80;;;7.10;;
6135;SDS011;24008;42.664;23.372;2023-06-04T07:48:23;10.60;;;7.73;;
6135;SDS011;24008;42.664;23.372;2023-06-04T07:50:55;11.37;;;7.57;;
6135;SDS011;24008;42.664;23.372;2023-06-04T07:53:22;12.47;;;8.00;;
6135;SDS011;24008;42.664;23.372;2023-06-04T07:55:49;8.57;;;7.23;;
6135;SDS011;24008;42.664;23.372;2023-06-04T07:58:16;8.77;;;7.83;;
6135;SDS011;24008;42.664;23.372;2023-06-04T08:00:43;9.53;;;7.60;;
6135;SDS011;24008;42.664;23.372;2023-06-04T08:03:11;9.73;;;7.90;;
6135;SDS011;24008;42.664;23.372;2023-06-04T08:05:38;10.80;;;7.80;;
6135;SDS011;24008;42.664;23.372;2023-06-04T08:08:04;9.47;;;7.80;;
6135;SDS011;24008;42.664;23.372;2023-06-04T08:10:31;8.83;;;7.57;;
6135;SDS011;24008;42.664;23.372;2023-06-04T08:12:58;9.93;;;8.17;;
6135;SDS011;24008;42.664;23.372;2023-06-04T08:15:25;9.33;;;8.07;;
6135;SDS011;24008;42.664;23.372;2023-06-04T08:17:52;11.97;;;7.90;;
6135;SDS011;24008;42.664;23.372;2023-06-04T08:20:20;11.80;;;8.27;;
6135;SDS011;24008;42.664;23.372;2023-06-04T08:22:47;13.37;;;8.37;;
6135;SDS011;24008;42.664;23.372;2023-06-04T08:25:14;9.17;;;7.50;;
6135;SDS011;24008;42.664;23.372;2023-06-04T08:27:41;11.10;;;8.20;;
6135;SDS011;24008;42.664;23.372;2023-06-04T08:30:08;8.60;;;7.53;;
6135;SDS011;24008;42.664;23.372;2023-06-04T08:32:35;11.07;;;7.80;;
6135;SDS011;24008;42.664;23.372;2023-06-04T08:35:02;11.13;;;7.93;;
6135;SDS011;24008;42.664;23.372;2023-06-04T08:37:31;10.23;;;8.57;;
6135;SDS011;24008;42.664;23.372;2023-06-04T08:39:58;12.80;;;8.13;;
6135;SDS011;24008;42.664;23.372;2023-06-04T08:42:27;10.50;;;8.17;;
6135;SDS011;24008;42.664;23.372;2023-06-04T08:44:56;11.97;;;8.97;;
6135;SDS011;24008;42.664;23.372;2023-06-04T08:47:24;12.37;;;9.37;;
6135;SDS011;24008;42.664;23.372;2023-06-04T08:49:51;12.13;;;8.67;;
6135;SDS011;24008;42.664;23.372;2023-06-04T08:52:21;9.88;;;8.70;;
6135;SDS011;24008;42.664;23.372;2023-06-04T08:54:51;10.70;;;8.73;;
6135;SDS011;24008;42.664;23.372;2023-06-04T08:57:20;12.10;;;8.97;;
6135;SDS011;24008;42.664;23.372;2023-06-04T08:59:47;10.63;;;8.83;;
6135;SDS011;24008;42.664;23.372;2023-06-04T09:02:14;11.43;;;9.03;;
6135;SDS011;24008;42.664;23.372;2023-06-04T09:04:41;11.00;;;8.60;;
6135;SDS011;24008;42.664;23.372;2023-06-04T09:07:09;10.67;;;8.70;;
6135;SDS011;24008;42.664;23.372;2023-06-04T09:09:39;13.77;;;9.30;;
6135;SDS011;24008;42.664;23.372;2023-06-04T09:12:09;13.40;;;9.30;;
6135;SDS011;24008;42.664;23.372;2023-06-04T09:14:37;15.17;;;9.07;;
6135;SDS011;24008;42.664;23.372;2023-06-04T09:17:04;12.10;;;9.30;;
6135;SDS011;24008;42.664;23.372;2023-06-04T09:19:31;12.77;;;9.00;;
6135;SDS011;24008;42.664;23.372;2023-06-04T09:21:58;12.70;;;9.07;;
6135;SDS011;24008;42.664;23.372;2023-06-04T09:24:38;14.70;;;8.57;;
6135;SDS011;24008;42.664;23.372;2023-06-04T09:27:10;12.70;;;9.50;;
6135;SDS011;24008;42.664;23.372;2023-06-04T09:29:38;10.73;;;9.07;;
6135;SDS011;24008;42.664;23.372;2023-06-04T09:32:05;12.50;;;9.27;;
6135;SDS011;24008;42.664;23.372;2023-06-04T09:34:32;14.00;;;8.73;;
6135;SDS011;24008;42.664;23.372;2023-06-04T09:36:59;18.27;;;10.23;;
6135;SDS011;24008;42.664;23.372;2023-06-04T09:39:26;13.10;;;9.70;;
6135;SDS011;24008;42.664;23.372;2023-06-04T09:41:59;13.88;;;10.48;;
6135;SDS011;24008;42.664;23.372;2023-06-04T09:44:28;13.45;;;9.95;;
6135;SDS011;24008;42.664;23.372;2023-06-04T09:46:55;13.20;;;9.73;;
6135;SDS011;24008;42.664;23.372;2023-06-04T09:49:22;12.57;;;10.48;;
6135;SDS011;24008;42.664;23.372;2023-06-04T09:51:49;14.43;;;10.30;;
6135;SDS011;24008;42.664;23.372;2023-06-04T09:54:16;11.75;;;9.75;;
6135;SDS011;24008;42.664;23.372;2023-06-04T09:56:43;12.10;;;9.25;;
6135;SDS011;24008;42.664;23.372;2023-06-04T09:59:10;11.60;;;9.00;;
6135;SDS011;24008;42.664;23.372;2023-06-04T10:01:40;8.60;;;7.65;;
6135;SDS011;24008;42.664;23.372;2023-06-04T10:04:08;10.07;;;8.38;;
6135;SDS011;24008;42.664;23.372;2023-06-04T10:06:37;11.20;;;8.50;;
6135;SDS011;24008;42.664;23.372;2023-06-04T10:09:06;9.43;;;8.23;;
6135;SDS011;24008;42.664;23.372;2023-06-04T10:11:34;8.10;;;7.30;;
6135;SDS011;24008;42.664;23.372;2023-06-04T10:14:06;8.20;;;7.38;;
6135;SDS011;24008;42.664;23.372;2023-06-04T10:16:37;10.85;;;7.90;;
6135;SDS011;24008;42.664;23.372;2023-06-04T10:19:08;8.55;;;7.65;;
6135;SDS011;24008;42.664;23.372;2023-06-04T10:21:35;10.95;;;9.05;;
6135;SDS011;24008;42.664;23.372;2023-06-04T10:24:02;14.55;;;8.13;;
6135;SDS011;24008;42.664;23.372;2023-06-04T10:26:30;9.48;;;7.72;;
6135;SDS011;24008;42.664;23.372;2023-06-04T10:29:00;11.73;;;8.32;;
6135;SDS011;24008;42.664;23.372;2023-06-04T10:31:27;10.15;;;8.05;;
6135;SDS011;24008;42.664;23.372;2023-06-04T10:34:07;9.02;;;7.90;;
6135;SDS011;24008;42.664;23.372;2023-06-04T10:36:52;9.50;;;8.00;;
6135;SDS011;24008;42.664;23.372;2023-06-04T10:39:25;9.95;;;8.20;;
6135;SDS011;24008;42.664;23.372;2023-06-04T10:41:59;10.23;;;8.48;;
6135;SDS011;24008;42.664;23.372;2023-06-04T10:44:26;11.88;;;8.45;;
6135;SDS011;24008;42.664;23.372;2023-06-04T10:46:53;10.38;;;8.73;;
6135;SDS011;24008;42.664;23.372;2023-06-04T10:49:27;10.38;;;8.25;;
6135;SDS011;24008;42.664;23.372;2023-06-04T10:51:54;11.63;;;8.77;;
6135;SDS011;24008;42.664;23.372;2023-06-04T10:54:22;11.27;;;9.18;;
6135;SDS011;24008;42.664;23.372;2023-06-04T10:56:52;9.95;;;8.88;;
6135;SDS011;24008;42.664;23.372;2023-06-04T10:59:19;11.45;;;9.00;;
6135;SDS011;24008;42.664;23.372;2023-06-04T11:01:46;11.18;;;8.77;;
6135;SDS011;24008;42.664;23.372;2023-06-04T11:04:20;13.07;;;10.38;;
6135;SDS011;24008;42.664;23.372;2023-06-04T11:06:55;13.80;;;9.57;;
6135;SDS011;24008;42.664;23.372;2023-06-04T11:09:28;11.77;;;9.02;;
6135;SDS011;24008;42.664;23.372;2023-06-04T11:11:56;13.38;;;9.55;;
6135;SDS011;24008;42.664;23.372;2023-06-04T11:14:24;13.13;;;9.95;;
6135;SDS011;24008;42.664;23.372;2023-06-04T11:16:50;13.75;;;9.85;;
6135;SDS011;24008;42.664;23.372;2023-06-04T11:19:17;11.38;;;9.57;;
6135;SDS011;24008;42.664;23.372;2023-06-04T11:21:45;11.27;;;10.18;;
6135;SDS011;24008;42.664;23.372;2023-06-04T11:24:13;12.43;;;10.88;;
6135;SDS011;24008;42.664;23.372;2023-06-04T11:26:40;11.93;;;10.73;;
6135;SDS011;24008;42.664;23.372;2023-06-04T11:29:07;11.93;;;10.68;;
6135;SDS011;24008;42.664;23.372;2023-06-04T11:31:40;11.75;;;10.60;;
6135;SDS011;24008;42.664;23.372;2023-06-04T11:34:08;12.25;;;10.95;;
6135;SDS011;24008;42.664;23.372;2023-06-04T11:36:37;12.95;;;11.68;;
6135;SDS011;24008;42.664;23.372;2023-06-04T11:39:04;13.10;;;11.13;;
6135;SDS011;24008;42.664;23.372;2023-06-04T11:41:34;12.30;;;11.00;;
6135;SDS011;24008;42.664;23.372;2023-06-04T11:44:02;12.73;;;11.45;;
6135;SDS011;24008;42.664;23.372;2023-06-04T11:46:30;13.27;;;11.98;;
6135;SDS011;24008;42.664;23.372;2023-06-04T11:48:58;17.73;;;11.43;;
6135;SDS011;24008;42.664;23.372;2023-06-04T11:51:26;13.82;;;11.95;;
6135;SDS011;24008;42.664;23.372;2023-06-04T11:53:52;13.10;;;11.70;;
6135;SDS011;24008;42.664;23.372;2023-06-04T11:56:20;14.85;;;11.38;;
6135;SDS011;24008;42.664;23.372;2023-06-04T11:58:52;12.90;;;11.18;;
6135;SDS011;24008;42.664;23.372;2023-06-04T12:01:20;14.05;;;12.07;;
6135;SDS011;24008;42.664;23.372;2023-06-04T12:03:48;13.40;;;11.95;;
6135;SDS011;24008;42.664;23.372;2023-06-04T12:06:15;13.20;;;11.90;;
6135;SDS011;24008;42.664;23.372;2023-06-04T12:08:46;14.38;;;11.75;;
6135;SDS011;24008;42.664;23.372;2023-06-04T12:11:27;13.75;;;12.35;;
6135;SDS011;24008;42.664;23.372;2023-06-04T12:13:58;13.20;;;11.38;;
6135;SDS011;24008;42.664;23.372;2023-06-04T12:16:26;14.23;;;12.18;;
6135;SDS011;24008;42.664;23.372;2023-06-04T12:19:03;15.18;;;12.10;;
6135;SDS011;24008;42.664;23.372;2023-06-04T12:21:31;14.13;;;12.52;;
6135;SDS011;24008;42.664;23.372;2023-06-04T12:24:05;14.13;;;11.98;;
6135;SDS011;24008;42.664;23.372;2023-06-04T12:26:33;15.50;;;12.43;;
6135;SDS011;24008;42.664;23.372;2023-06-04T12:29:08;15.07;;;12.43;;
6135;SDS011;24008;42.664;23.372;2023-06-04T12:31:36;15.40;;;13.20;;
6135;SDS011;24008;42.664;23.372;2023-06-04T12:34:03;13.38;;;11.98;;
6135;SDS011;24008;42.664;23.372;2023-06-04T12:36:30;15.15;;;12.40;;
6135;SDS011;24008;42.664;23.372;2023-06-04T12:38:59;14.02;;;12.50;;
6135;SDS011;24008;42.664;23.372;2023-06-04T12:41:27;14.87;;;12.67;;
6135;SDS011;24008;42.664;23.372;2023-06-04T12:43:54;13.70;;;12.38;;
6135;SDS011;24008;42.664;23.372;2023-06-04T12:46:23;14.10;;;12.40;;
6135;SDS011;24008;42.664;23.372;2023-06-04T12:48:50;19.58;;;12.25;;
6135;SDS011;24008;42.664;23.372;2023-06-04T12:51:17;15.25;;;11.50;;
6135;SDS011;24008;42.664;23.372;2023-06-04T12:53:45;13.43;;;11.73;;
6135;SDS011;24008;42.664;23.372;2023-06-04T12:56:12;14.07;;;11.40;;
6135;SDS011;24008;42.664;23.372;2023-06-04T12:58:40;13.50;;;10.77;;
6135;SDS011;24008;42.664;23.372;2023-06-04T13:01:06;11.20;;;9.82;;
6135;SDS011;24008;42.664;23.372;2023-06-04T13:03:36;11.98;;;10.77;;
6135;SDS011;24008;42.664;23.372;2023-06-04T13:06:03;14.15;;;11.43;;
6135;SDS011;24008;42.664;23.372;2023-06-04T13:08:30;13.67;;;10.70;;
6135;SDS011;24008;42.664;23.372;2023-06-04T13:10:57;11.63;;;10.43;;
6135;SDS011;24008;42.664;23.372;2023-06-04T13:13:24;11.73;;;10.45;;
6135;SDS011;24008;42.664;23.372;2023-06-04T13:15:51;10.48;;;9.13;;
6135;SDS011;24008;42.664;23.372;2023-06-04T13:18:18;13.02;;;10.65;;
6135;SDS011;24008;42.664;23.372;2023-06-04T13:20:46;14.07;;;10.73;;
6135;SDS011;24008;42.664;23.372;2023-06-04T13:23:13;11.48;;;10.27;;
6135;SDS011;24008;42.664;23.372;2023-06-04T13:25:40;13.23;;;10.27;;
6135;SDS011;24008;42.664;23.372;2023-06-04T13:28:07;12.83;;;10.80;;
6135;SDS011;24008;42.664;23.372;2023-06-04T13:30:34;12.27;;;11.00;;
6135;SDS011;24008;42.664;23.372;2023-06-04T13:33:02;14.73;;;12.03;;
6135;SDS011;24008;42.664;23.372;2023-06-04T13:35:29;15.25;;;10.20;;
6135;SDS011;24008;42.664;23.372;2023-06-04T13:37:57;11.75;;;10.18;;
6135;SDS011;24008;42.664;23.372;2023-06-04T13:40:24;12.73;;;10.55;;
6135;SDS011;24008;42.664;23.372;2023-06-04T13:42:51;11.52;;;10.07;;
6135;SDS011;24008;42.664;23.372;2023-06-04T13:45:17;11.80;;;10.60;;
6135;SDS011;24008;42.664;23.372;2023-06-04T13:47:45;11.50;;;9.95;;
6135;SDS011;24008;42.664;23.372;2023-06-04T13:50:13;11.10;;;9.68;;
6135;SDS011;24008;42.664;23.372;2023-06-04T13:52:40;10.87;;;9.33;;
6135;SDS011;24008;42.664;23.372;2023-06-04T13:55:08;11.45;;;10.25;;
6135;SDS011;24008;42.664;23.372;2023-06-04T13:57:35;11.52;;;10.07;;
6135;SDS011;24008;42.664;23.372;2023-06-04T14:00:02;10.48;;;9.38;;
6135;SDS011;24008;42.664;23.372;2023-06-04T14:02:31;12.25;;;10.48;;
6135;SDS011;24008;42.664;23.372;2023-06-04T14:04:58;12.50;;;10.48;;
6135;SDS011;24008;42.664;23.372;2023-06-04T14:07:25;11.55;;;10.00;;
6135;SDS011;24008;42.664;23.372;2023-06-04T14:09:51;12.50;;;9.95;;
6135;SDS011;24008;42.664;23.372;2023-06-04T14:12:21;15.38;;;9.93;;
6135;SDS011;24008;42.664;23.372;2023-06-04T14:14:48;12.07;;;10.88;;
6135;SDS011;24008;42.664;23.372;2023-06-04T14:17:15;13.60;;;10.45;;
6135;SDS011;24008;42.664;23.372;2023-06-04T14:19:41;13.23;;;10.35;;
6135;SDS011;24008;42.664;23.372;2023-06-04T14:22:09;11.52;;;10.40;;
6135;SDS011;24008;42.664;23.372;2023-06-04T14:24:36;12.77;;;11.02;;
6135;SDS011;24008;42.664;23.372;2023-06-04T14:27:07;11.37;;;10.10;;
6135;SDS011;24008;42.664;23.372;2023-06-04T14:29:36;14.13;;;10.30;;
6135;SDS011;24008;42.664;23.372;2023-06-04T14:32:03;11.57;;;10.48;;
6135;SDS011;24008;42.664;23.372;2023-06-04T14:34:30;11.87;;;10.70;;
6135;SDS011;24008;42.664;23.372;2023-06-04T14:36:58;11.43;;;10.15;;
6135;SDS011;24008;42.664;23.372;2023-06-04T14:39:25;11.18;;;10.07;;
6135;SDS011;24008;42.664;23.372;2023-06-04T14:41:52;11.80;;;10.60;;
6135;SDS011;24008;42.664;23.372;2023-06-04T14:44:19;12.03;;;10.17;;